sensor_id;sensor_type;location;lat;lon;timestamp;P1;durP1;ratioP1;P2;durP2;ratioP2
36593;SDS011;22603;47.900;8.146;2023-08-08T00:02:18;4.83;;;1.60;;
36593;SDS011;22603;47.900;8.146;2023-08-08T00:05:05;3.90;;;1.40;;
36593;SDS011;22603;47.900;8.146;2023-08-08T00:07:52;2.67;;;1.30;;
36593;SDS011;22603;47.900;8.146;2023-08-08T00:10:39;3.43;;;1.40;;
36593;SDS011;22603;47.900;8.146;2023-08-08T00:13:26;2.63;;;1.40;;
36593;SDS011;22603;47.900;8.146;2023-08-08T00:16:12;9.00;;;1.67;;
36593;SDS011;22603;47.900;8.146;2023-08-08T00:19:01;2.40;;;1.37;;
36593;SDS011;22603;47.900;8.146;2023-08-08T00:21:48;2.50;;;1.30;;
36593;SDS011;22603;47.900;8.146;2023-08-08T00:24:34;3.17;;;1.47;;
36593;SDS011;22603;47.900;8.146;2023-08-08T00:27:21;6.73;;;1.50;;
36593;SDS011;22603;47.900;8.146;2023-08-08T00:30:08;2.63;;;1.10;;
36593;SDS011;22603;47.900;8.146;2023-08-08T00:32:56;4.17;;;1.40;;
36593;SDS011;22603;47.900;8.146;2023-08-08T00:35:44;3.80;;;1.20;;
36593;SDS011;22603;47.900;8.146;2023-08-08T00:38:36;3.97;;;1.43;;
36593;SDS011;22603;47.900;8.146;2023-08-08T00:41:23;3.47;;;1.40;;
36593;SDS011;22603;47.900;8.146;2023-08-08T00:44:11;3.37;;;1.53;;
36593;SDS011;22603;47.900;8.146;2023-08-08T00:46:58;5.23;;;1.50;;
36593;SDS011;22603;47.900;8.146;2023-08-08T00:49:45;5.00;;;1.37;;
36593;SDS011;22603;47.900;8.146;2023-08-08T00:52:35;3.90;;;1.37;;
36593;SDS011;22603;47.900;8.146;2023-08-08T00:55:23;4.20;;;1.73;;
36593;SDS011;22603;47.900;8.146;2023-08-08T00:58:10;3.07;;;1.37;;
36593;SDS011;22603;47.900;8.146;2023-08-08T01:00:57;4.13;;;1.50;;
36593;SDS011;22603;47.900;8.146;2023-08-08T01:03:45;6.00;;;1.30;;
36593;SDS011;22603;47.900;8.146;2023-08-08T01:06:34;3.97;;;1.40;;
36593;SDS011;22603;47.900;8.146;2023-08-08T01:09:28;2.83;;;1.20;;
36593;SDS011;22603;47.900;8.146;2023-08-08T01:12:18;2.03;;;1.10;;
36593;SDS011;22603;47.900;8.146;2023-08-08T01:15:06;4.50;;;1.80;;
36593;SDS011;22603;47.900;8.146;2023-08-08T01:17:54;2.17;;;1.20;;
36593;SDS011;22603;47.900;8.146;2023-08-08T01:20:42;3.00;;;1.37;;
36593;SDS011;22603;47.900;8.146;2023-08-08T01:23:33;3.57;;;1.30;;
36593;SDS011;22603;47.900;8.146;2023-08-08T01:26:29;2.37;;;1.10;;
36593;SDS011;22603;47.900;8.146;2023-08-08T01:29:17;3.60;;;1.53;;
36593;SDS011;22603;47.900;8.146;2023-08-08T01:32:04;3.17;;;1.10;;
36593;SDS011;22603;47.900;8.146;2023-08-08T01:34:53;4.37;;;1.37;;
36593;SDS011;22603;47.900;8.146;2023-08-08T01:37:41;2.93;;;1.23;;
36593;SDS011;22603;47.900;8.146;2023-08-08T01:40:31;2.53;;;1.23;;
36593;SDS011;22603;47.900;8.146;2023-08-08T01:43:21;1.83;;;1.13;;
36593;SDS011;22603;47.900;8.146;2023-08-08T01:46:11;3.67;;;1.37;;
36593;SDS011;22603;47.900;8.146;2023-08-08T01:48:58;3.97;;;1.60;;
36593;SDS011;22603;47.900;8.146;2023-08-08T01:51:45;2.27;;;1.10;;
36593;SDS011;22603;47.900;8.146;2023-08-08T01:54:33;3.03;;;1.23;;
36593;SDS011;22603;47.900;8.146;2023-08-08T01:57:20;2.40;;;1.40;;
36593;SDS011;22603;47.900;8.146;2023-08-08T02:00:09;2.87;;;1.40;;
36593;SDS011;22603;47.900;8.146;2023-08-08T02:02:58;3.60;;;1.40;;
36593;SDS011;22603;47.900;8.146;2023-08-08T02:05:45;3.07;;;1.37;;
36593;SDS011;22603;47.900;8.146;2023-08-08T02:08:32;3.23;;;1.40;;
36593;SDS011;22603;47.900;8.146;2023-08-08T02:11:19;2.20;;;1.23;;
36593;SDS011;22603;47.900;8.146;2023-08-08T02:14:06;2.80;;;1.30;;
36593;SDS011;22603;47.900;8.146;2023-08-08T02:16:55;2.80;;;1.40;;
36593;SDS011;22603;47.900;8.146;2023-08-08T02:19:41;3.00;;;1.17;;
36593;SDS011;22603;47.900;8.146;2023-08-08T02:22:28;3.10;;;1.20;;
36593;SDS011;22603;47.900;8.146;2023-08-08T02:25:15;2.73;;;1.30;;
36593;SDS011;22603;47.900;8.146;2023-08-08T02:28:01;1.53;;;1.03;;
36593;SDS011;22603;47.900;8.146;2023-08-08T02:30:48;3.03;;;1.40;;
36593;SDS011;22603;47.900;8.146;2023-08-08T02:33:36;3.67;;;1.40;;
36593;SDS011;22603;47.900;8.146;2023-08-08T02:36:23;3.77;;;1.60;;
36593;SDS011;22603;47.900;8.146;2023-08-08T02:39:10;2.40;;;1.27;;
36593;SDS011;22603;47.900;8.146;2023-08-08T02:41:57;2.07;;;1.10;;
36593;SDS011;22603;47.900;8.146;2023-08-08T02:44:44;4.10;;;1.30;;
36593;SDS011;22603;47.900;8.146;2023-08-08T02:47:30;2.47;;;1.10;;
36593;SDS011;22603;47.900;8.146;2023-08-08T02:50:18;2.90;;;1.33;;
36593;SDS011;22603;47.900;8.146;2023-08-08T02:53:05;3.90;;;1.63;;
36593;SDS011;22603;47.900;8.146;2023-08-08T02:55:52;3.97;;;1.43;;
36593;SDS011;22603;47.900;8.146;2023-08-08T02:58:38;3.73;;;1.40;;
36593;SDS011;22603;47.900;8.146;2023-08-08T03:01:25;5.00;;;1.40;;
36593;SDS011;22603;47.900;8.146;2023-08-08T03:04:12;1.83;;;1.17;;
36593;SDS011;22603;47.900;8.146;2023-08-08T03:07:00;3.23;;;1.53;;
36593;SDS011;22603;47.900;8.146;2023-08-08T03:09:48;5.67;;;1.40;;
36593;SDS011;22603;47.900;8.146;2023-08-08T03:12:35;2.17;;;1.10;;
36593;SDS011;22603;47.900;8.146;2023-08-08T03:15:23;3.30;;;1.30;;
36593;SDS011;22603;47.900;8.146;2023-08-08T03:18:09;2.47;;;0.90;;
36593;SDS011;22603;47.900;8.146;2023-08-08T03:20:56;3.00;;;1.20;;
36593;SDS011;22603;47.900;8.146;2023-08-08T03:23:45;3.73;;;1.40;;
36593;SDS011;22603;47.900;8.146;2023-08-08T03:26:32;2.23;;;0.93;;
36593;SDS011;22603;47.900;8.146;2023-08-08T03:29:18;2.73;;;1.10;;
36593;SDS011;22603;47.900;8.146;2023-08-08T03:32:05;3.17;;;1.40;;
36593;SDS011;22603;47.900;8.146;2023-08-08T03:34:52;5.07;;;1.30;;
36593;SDS011;22603;47.900;8.146;2023-08-08T03:37:39;2.70;;;1.17;;
36593;SDS011;22603;47.900;8.146;2023-08-08T03:40:26;2.47;;;1.33;;
36593;SDS011;22603;47.900;8.146;2023-08-08T03:43:13;3.20;;;1.43;;
36593;SDS011;22603;47.900;8.146;2023-08-08T03:46:00;4.30;;;1.40;;
36593;SDS011;22603;47.900;8.146;2023-08-08T03:48:46;9.83;;;1.47;;
36593;SDS011;22603;47.900;8.146;2023-08-08T03:51:36;7.50;;;1.43;;
36593;SDS011;22603;47.900;8.146;2023-08-08T03:54:25;11.50;;;1.73;;
36593;SDS011;22603;47.900;8.146;2023-08-08T03:57:13;8.60;;;1.77;;
36593;SDS011;22603;47.900;8.146;2023-08-08T04:00:01;4.60;;;1.87;;
36593;SDS011;22603;47.900;8.146;2023-08-08T04:02:48;4.83;;;1.67;;
36593;SDS011;22603;47.900;8.146;2023-08-08T04:05:35;4.47;;;1.93;;
36593;SDS011;22603;47.900;8.146;2023-08-08T04:08:22;4.40;;;1.63;;
36593;SDS011;22603;47.900;8.146;2023-08-08T04:11:08;2.53;;;1.30;;
36593;SDS011;22603;47.900;8.146;2023-08-08T04:13:56;4.20;;;1.43;;
36593;SDS011;22603;47.900;8.146;2023-08-08T04:16:46;3.03;;;1.27;;
36593;SDS011;22603;47.900;8.146;2023-08-08T04:19:34;2.07;;;1.13;;
36593;SDS011;22603;47.900;8.146;2023-08-08T04:22:21;3.00;;;1.37;;
36593;SDS011;22603;47.900;8.146;2023-08-08T04:25:08;3.03;;;1.00;;
36593;SDS011;22603;47.900;8.146;2023-08-08T04:27:55;2.00;;;1.00;;
36593;SDS011;22603;47.900;8.146;2023-08-08T04:30:43;2.67;;;1.20;;
36593;SDS011;22603;47.900;8.146;2023-08-08T04:33:31;3.33;;;1.30;;
36593;SDS011;22603;47.900;8.146;2023-08-08T04:36:17;4.10;;;1.37;;
36593;SDS011;22603;47.900;8.146;2023-08-08T04:39:04;4.83;;;1.60;;
36593;SDS011;22603;47.900;8.146;2023-08-08T04:41:50;2.03;;;1.00;;
36593;SDS011;22603;47.900;8.146;2023-08-08T04:44:37;2.50;;;1.33;;
36593;SDS011;22603;47.900;8.146;2023-08-08T04:47:25;4.73;;;1.60;;
36593;SDS011;22603;47.900;8.146;2023-08-08T04:50:12;2.53;;;1.17;;
36593;SDS011;22603;47.900;8.146;2023-08-08T04:52:59;6.47;;;1.57;;
36593;SDS011;22603;47.900;8.146;2023-08-08T04:55:45;3.27;;;1.50;;
36593;SDS011;22603;47.900;8.146;2023-08-08T04:58:32;4.00;;;1.40;;
36593;SDS011;22603;47.900;8.146;2023-08-08T05:01:18;2.27;;;1.07;;
36593;SDS011;22603;47.900;8.146;2023-08-08T05:04:08;4.20;;;1.60;;
36593;SDS011;22603;47.900;8.146;2023-08-08T05:06:55;5.00;;;1.70;;
36593;SDS011;22603;47.900;8.146;2023-08-08T05:09:43;9.13;;;2.97;;
36593;SDS011;22603;47.900;8.146;2023-08-08T05:12:29;11.27;;;3.60;;
36593;SDS011;22603;47.900;8.146;2023-08-08T05:15:16;11.27;;;4.07;;
36593;SDS011;22603;47.900;8.146;2023-08-08T05:18:03;9.73;;;3.60;;
36593;SDS011;22603;47.900;8.146;2023-08-08T05:20:52;11.50;;;3.00;;
36593;SDS011;22603;47.900;8.146;2023-08-08T05:23:38;7.03;;;2.60;;
36593;SDS011;22603;47.900;8.146;2023-08-08T05:26:25;6.57;;;2.30;;
36593;SDS011;22603;47.900;8.146;2023-08-08T05:29:12;6.13;;;2.43;;
36593;SDS011;22603;47.900;8.146;2023-08-08T05:31:59;5.97;;;2.00;;
36593;SDS011;22603;47.900;8.146;2023-08-08T05:34:46;4.70;;;1.73;;
36593;SDS011;22603;47.900;8.146;2023-08-08T05:37:35;5.67;;;2.10;;
36593;SDS011;22603;47.900;8.146;2023-08-08T05:40:22;6.90;;;2.67;;
36593;SDS011;22603;47.900;8.146;2023-08-08T05:43:09;7.10;;;2.93;;
36593;SDS011;22603;47.900;8.146;2023-08-08T05:46:01;7.93;;;2.37;;
36593;SDS011;22603;47.900;8.146;2023-08-08T05:48:48;4.73;;;2.13;;
36593;SDS011;22603;47.900;8.146;2023-08-08T05:51:35;6.90;;;2.40;;
36593;SDS011;22603;47.900;8.146;2023-08-08T05:54:23;7.27;;;2.87;;
36593;SDS011;22603;47.900;8.146;2023-08-08T05:57:09;6.83;;;3.20;;
36593;SDS011;22603;47.900;8.146;2023-08-08T05:59:56;8.23;;;3.20;;
36593;SDS011;22603;47.900;8.146;2023-08-08T06:02:47;6.60;;;1.90;;
36593;SDS011;22603;47.900;8.146;2023-08-08T06:05:34;10.67;;;2.50;;
36593;SDS011;22603;47.900;8.146;2023-08-08T06:08:20;7.07;;;2.50;;
36593;SDS011;22603;47.900;8.146;2023-08-08T06:11:09;5.20;;;2.13;;
36593;SDS011;22603;47.900;8.146;2023-08-08T06:13:55;6.53;;;2.13;;
36593;SDS011;22603;47.900;8.146;2023-08-08T06:16:43;8.77;;;3.03;;
36593;SDS011;22603;47.900;8.146;2023-08-08T06:19:32;7.17;;;2.30;;
36593;SDS011;22603;47.900;8.146;2023-08-08T06:22:18;7.97;;;2.10;;
36593;SDS011;22603;47.900;8.146;2023-08-08T06:25:08;5.10;;;2.07;;
36593;SDS011;22603;47.900;8.146;2023-08-08T06:27:57;5.20;;;1.90;;
36593;SDS011;22603;47.900;8.146;2023-08-08T06:30:46;6.63;;;2.10;;
36593;SDS011;22603;47.900;8.146;2023-08-08T06:33:33;6.27;;;2.50;;
36593;SDS011;22603;47.900;8.146;2023-08-08T06:36:20;10.13;;;3.20;;
36593;SDS011;22603;47.900;8.146;2023-08-08T06:39:06;13.73;;;4.27;;
36593;SDS011;22603;47.900;8.146;2023-08-08T06:41:54;3.50;;;1.70;;
36593;SDS011;22603;47.900;8.146;2023-08-08T06:44:43;8.40;;;1.95;;
36593;SDS011;22603;47.900;8.146;2023-08-08T06:47:30;10.57;;;2.35;;
36593;SDS011;22603;47.900;8.146;2023-08-08T06:50:17;2.58;;;1.40;;
36593;SDS011;22603;47.900;8.146;2023-08-08T06:53:04;7.50;;;1.85;;
36593;SDS011;22603;47.900;8.146;2023-08-08T06:55:51;3.40;;;1.40;;
36593;SDS011;22603;47.900;8.146;2023-08-08T06:58:38;1.77;;;1.20;;
36593;SDS011;22603;47.900;8.146;2023-08-08T07:01:26;2.70;;;1.15;;
36593;SDS011;22603;47.900;8.146;2023-08-08T07:04:13;3.15;;;1.35;;
36593;SDS011;22603;47.900;8.146;2023-08-08T07:07:01;2.53;;;1.08;;
36593;SDS011;22603;47.900;8.146;2023-08-08T07:09:48;3.42;;;1.20;;
36593;SDS011;22603;47.900;8.146;2023-08-08T07:12:35;2.30;;;1.23;;
36593;SDS011;22603;47.900;8.146;2023-08-08T07:15:22;3.25;;;1.10;;
36593;SDS011;22603;47.900;8.146;2023-08-08T07:18:11;2.70;;;1.17;;
36593;SDS011;22603;47.900;8.146;2023-08-08T07:20:58;2.67;;;1.15;;
36593;SDS011;22603;47.900;8.146;2023-08-08T07:23:45;2.95;;;1.05;;
36593;SDS011;22603;47.900;8.146;2023-08-08T07:26:32;3.20;;;1.20;;
36593;SDS011;22603;47.900;8.146;2023-08-08T07:29:19;3.78;;;1.10;;
36593;SDS011;22603;47.900;8.146;2023-08-08T07:32:06;2.15;;;1.00;;
36593;SDS011;22603;47.900;8.146;2023-08-08T07:34:55;3.97;;;0.95;;
36593;SDS011;22603;47.900;8.146;2023-08-08T07:37:41;3.10;;;1.13;;
36593;SDS011;22603;47.900;8.146;2023-08-08T07:40:29;2.10;;;0.90;;
36593;SDS011;22603;47.900;8.146;2023-08-08T07:43:15;3.17;;;0.93;;
36593;SDS011;22603;47.900;8.146;2023-08-08T07:46:02;2.47;;;0.98;;
36593;SDS011;22603;47.900;8.146;2023-08-08T07:48:49;2.42;;;1.15;;
36593;SDS011;22603;47.900;8.146;2023-08-08T07:51:37;1.98;;;1.00;;
36593;SDS011;22603;47.900;8.146;2023-08-08T07:54:24;3.80;;;1.23;;
36593;SDS011;22603;47.900;8.146;2023-08-08T07:57:10;2.40;;;1.02;;
36593;SDS011;22603;47.900;8.146;2023-08-08T07:59:57;2.72;;;1.20;;
36593;SDS011;22603;47.900;8.146;2023-08-08T08:02:44;2.13;;;1.10;;
36593;SDS011;22603;47.900;8.146;2023-08-08T08:05:31;1.52;;;0.88;;
36593;SDS011;22603;47.900;8.146;2023-08-08T08:08:21;3.72;;;1.00;;
36593;SDS011;22603;47.900;8.146;2023-08-08T08:11:09;3.13;;;1.13;;
36593;SDS011;22603;47.900;8.146;2023-08-08T08:13:58;3.72;;;1.40;;
36593;SDS011;22603;47.900;8.146;2023-08-08T08:16:45;2.60;;;0.73;;
36593;SDS011;22603;47.900;8.146;2023-08-08T08:19:31;2.65;;;0.95;;
36593;SDS011;22603;47.900;8.146;2023-08-08T08:22:18;4.30;;;1.10;;
36593;SDS011;22603;47.900;8.146;2023-08-08T08:25:07;3.53;;;1.10;;
36593;SDS011;22603;47.900;8.146;2023-08-08T08:27:54;1.70;;;1.00;;
36593;SDS011;22603;47.900;8.146;2023-08-08T08:30:41;4.70;;;1.20;;
36593;SDS011;22603;47.900;8.146;2023-08-08T08:33:28;1.90;;;1.05;;
36593;SDS011;22603;47.900;8.146;2023-08-08T08:36:15;2.47;;;1.23;;
36593;SDS011;22603;47.900;8.146;2023-08-08T08:39:02;2.72;;;1.20;;
36593;SDS011;22603;47.900;8.146;2023-08-08T08:41:53;1.73;;;0.90;;
36593;SDS011;22603;47.900;8.146;2023-08-08T08:44:46;3.22;;;1.13;;
36593;SDS011;22603;47.900;8.146;2023-08-08T08:47:35;3.35;;;1.30;;
36593;SDS011;22603;47.900;8.146;2023-08-08T08:50:23;4.63;;;1.05;;
36593;SDS011;22603;47.900;8.146;2023-08-08T08:53:13;5.32;;;1.27;;
36593;SDS011;22603;47.900;8.146;2023-08-08T08:56:02;3.78;;;1.23;;
36593;SDS011;22603;47.900;8.146;2023-08-08T08:58:51;2.35;;;1.00;;
36593;SDS011;22603;47.900;8.146;2023-08-08T09:01:41;2.90;;;1.10;;
36593;SDS011;22603;47.900;8.146;2023-08-08T09:04:29;2.22;;;0.95;;
36593;SDS011;22603;47.900;8.146;2023-08-08T09:07:16;4.05;;;1.10;;
36593;SDS011;22603;47.900;8.146;2023-08-08T09:10:06;1.58;;;0.80;;
36593;SDS011;22603;47.900;8.146;2023-08-08T09:13:24;2.42;;;1.00;;
36593;SDS011;22603;47.900;8.146;2023-08-08T09:16:13;2.03;;;1.05;;
36593;SDS011;22603;47.900;8.146;2023-08-08T09:18:59;2.35;;;1.08;;
36593;SDS011;22603;47.900;8.146;2023-08-08T09:21:48;2.03;;;0.95;;
36593;SDS011;22603;47.900;8.146;2023-08-08T09:24:37;2.40;;;1.20;;
36593;SDS011;22603;47.900;8.146;2023-08-08T09:27:25;5.60;;;1.30;;
36593;SDS011;22603;47.900;8.146;2023-08-08T09:30:14;2.85;;;1.10;;
36593;SDS011;22603;47.900;8.146;2023-08-08T09:33:03;4.18;;;1.20;;
36593;SDS011;22603;47.900;8.146;2023-08-08T09:35:52;2.60;;;0.90;;
36593;SDS011;22603;47.900;8.146;2023-08-08T09:38:40;4.00;;;1.50;;
36593;SDS011;22603;47.900;8.146;2023-08-08T09:41:27;3.97;;;1.33;;
36593;SDS011;22603;47.900;8.146;2023-08-08T09:44:14;3.13;;;1.27;;
36593;SDS011;22603;47.900;8.146;2023-08-08T09:47:02;2.50;;;1.17;;
36593;SDS011;22603;47.900;8.146;2023-08-08T09:49:50;2.85;;;1.17;;
36593;SDS011;22603;47.900;8.146;2023-08-08T09:52:37;1.02;;;0.73;;
36593;SDS011;22603;47.900;8.146;2023-08-08T09:55:24;2.33;;;1.00;;
36593;SDS011;22603;47.900;8.146;2023-08-08T09:58:11;2.80;;;1.00;;
36593;SDS011;22603;47.900;8.146;2023-08-08T10:00:59;2.47;;;1.10;;
36593;SDS011;22603;47.900;8.146;2023-08-08T10:03:46;3.50;;;1.17;;
36593;SDS011;22603;47.900;8.146;2023-08-08T10:06:34;2.75;;;1.33;;
36593;SDS011;22603;47.900;8.146;2023-08-08T10:09:21;1.88;;;1.10;;
36593;SDS011;22603;47.900;8.146;2023-08-08T10:12:10;2.08;;;1.00;;
36593;SDS011;22603;47.900;8.146;2023-08-08T10:14:57;1.70;;;0.90;;
36593;SDS011;22603;47.900;8.146;2023-08-08T10:17:44;1.88;;;1.05;;
36593;SDS011;22603;47.900;8.146;2023-08-08T10:20:32;1.73;;;1.00;;
36593;SDS011;22603;47.900;8.146;2023-08-08T10:23:23;3.72;;;1.15;;
36593;SDS011;22603;47.900;8.146;2023-08-08T10:26:17;2.58;;;1.17;;
36593;SDS011;22603;47.900;8.146;2023-08-08T10:29:06;3.05;;;1.17;;
36593;SDS011;22603;47.900;8.146;2023-08-08T10:31:53;1.92;;;0.88;;
36593;SDS011;22603;47.900;8.146;2023-08-08T10:34:46;1.58;;;1.00;;
36593;SDS011;22603;47.900;8.146;2023-08-08T10:37:33;3.17;;;1.10;;
36593;SDS011;22603;47.900;8.146;2023-08-08T10:40:24;2.30;;;0.95;;
36593;SDS011;22603;47.900;8.146;2023-08-08T10:43:24;1.92;;;0.98;;
36593;SDS011;22603;47.900;8.146;2023-08-08T10:46:11;2.05;;;1.15;;
36593;SDS011;22603;47.900;8.146;2023-08-08T10:48:59;4.38;;;1.25;;
36593;SDS011;22603;47.900;8.146;2023-08-08T10:51:47;2.15;;;1.08;;
36593;SDS011;22603;47.900;8.146;2023-08-08T10:54:36;2.13;;;1.08;;
36593;SDS011;22603;47.900;8.146;2023-08-08T10:57:25;2.58;;;1.20;;
36593;SDS011;22603;47.900;8.146;2023-08-08T11:00:16;3.38;;;1.08;;
36593;SDS011;22603;47.900;8.146;2023-08-08T11:03:03;2.45;;;1.10;;
36593;SDS011;22603;47.900;8.146;2023-08-08T11:05:51;3.72;;;1.17;;
36593;SDS011;22603;47.900;8.146;2023-08-08T11:08:38;2.58;;;1.30;;
36593;SDS011;22603;47.900;8.146;2023-08-08T11:11:24;1.77;;;1.00;;
36593;SDS011;22603;47.900;8.146;2023-08-08T11:14:13;2.78;;;1.20;;
36593;SDS011;22603;47.900;8.146;2023-08-08T11:17:01;3.53;;;1.00;;
36593;SDS011;22603;47.900;8.146;2023-08-08T11:19:50;2.35;;;1.00;;
36593;SDS011;22603;47.900;8.146;2023-08-08T11:22:36;3.42;;;1.20;;
36593;SDS011;22603;47.900;8.146;2023-08-08T11:25:25;2.05;;;1.00;;
36593;SDS011;22603;47.900;8.146;2023-08-08T11:28:13;3.72;;;1.13;;
36593;SDS011;22603;47.900;8.146;2023-08-08T11:31:01;2.17;;;1.15;;
36593;SDS011;22603;47.900;8.146;2023-08-08T11:33:48;3.13;;;1.02;;
36593;SDS011;22603;47.900;8.146;2023-08-08T11:36:35;5.22;;;1.23;;
36593;SDS011;22603;47.900;8.146;2023-08-08T11:39:23;3.42;;;1.20;;
36593;SDS011;22603;47.900;8.146;2023-08-08T11:42:10;2.95;;;1.08;;
36593;SDS011;22603;47.900;8.146;2023-08-08T11:44:57;2.92;;;1.10;;
36593;SDS011;22603;47.900;8.146;2023-08-08T11:47:48;3.08;;;1.30;;
36593;SDS011;22603;47.900;8.146;2023-08-08T11:50:36;3.80;;;1.10;;
36593;SDS011;22603;47.900;8.146;2023-08-08T11:53:23;3.33;;;1.15;;
36593;SDS011;22603;47.900;8.146;2023-08-08T11:56:10;3.45;;;1.38;;
36593;SDS011;22603;47.900;8.146;2023-08-08T11:58:57;2.50;;;1.00;;
36593;SDS011;22603;47.900;8.146;2023-08-08T12:01:45;2.10;;;1.20;;
36593;SDS011;22603;47.900;8.146;2023-08-08T12:04:36;4.05;;;1.27;;
36593;SDS011;22603;47.900;8.146;2023-08-08T12:07:23;1.58;;;0.95;;
36593;SDS011;22603;47.900;8.146;2023-08-08T12:10:14;2.60;;;1.27;;
36593;SDS011;22603;47.900;8.146;2023-08-08T12:13:02;5.15;;;1.30;;
36593;SDS011;22603;47.900;8.146;2023-08-08T12:15:49;2.90;;;1.35;;
36593;SDS011;22603;47.900;8.146;2023-08-08T12:18:38;2.20;;;0.90;;
36593;SDS011;22603;47.900;8.146;2023-08-08T12:21:27;2.03;;;1.02;;
36593;SDS011;22603;47.900;8.146;2023-08-08T12:24:13;4.22;;;1.10;;
36593;SDS011;22603;47.900;8.146;2023-08-08T12:27:00;2.20;;;1.13;;
36593;SDS011;22603;47.900;8.146;2023-08-08T12:29:47;3.38;;;1.15;;
36593;SDS011;22603;47.900;8.146;2023-08-08T12:32:33;3.05;;;1.00;;
36593;SDS011;22603;47.900;8.146;2023-08-08T12:35:20;3.95;;;1.38;;
36593;SDS011;22603;47.900;8.146;2023-08-08T12:38:08;1.75;;;1.00;;
36593;SDS011;22603;47.900;8.146;2023-08-08T12:40:56;3.03;;;1.08;;
36593;SDS011;22603;47.900;8.146;2023-08-08T12:43:43;3.13;;;1.00;;
36593;SDS011;22603;47.900;8.146;2023-08-08T12:46:29;2.17;;;1.08;;
36593;SDS011;22603;47.900;8.146;2023-08-08T12:49:16;1.98;;;0.90;;
36593;SDS011;22603;47.900;8.146;2023-08-08T12:52:02;2.55;;;1.08;;
36593;SDS011;22603;47.900;8.146;2023-08-08T12:54:51;2.85;;;1.23;;
36593;SDS011;22603;47.900;8.146;2023-08-08T12:57:38;2.83;;;0.90;;
36593;SDS011;22603;47.900;8.146;2023-08-08T13:00:25;4.13;;;1.45;;
36593;SDS011;22603;47.900;8.146;2023-08-08T13:03:12;4.00;;;1.08;;
36593;SDS011;22603;47.900;8.146;2023-08-08T13:05:59;2.92;;;1.02;;
36593;SDS011;22603;47.900;8.146;2023-08-08T13:08:46;2.10;;;1.10;;
36593;SDS011;22603;47.900;8.146;2023-08-08T13:11:34;3.30;;;1.20;;
36593;SDS011;22603;47.900;8.146;2023-08-08T13:14:21;2.17;;;1.05;;
36593;SDS011;22603;47.900;8.146;2023-08-08T13:17:08;2.80;;;1.10;;
36593;SDS011;22603;47.900;8.146;2023-08-08T13:19:55;1.95;;;0.93;;
36593;SDS011;22603;47.900;8.146;2023-08-08T13:22:42;3.08;;;1.30;;
36593;SDS011;22603;47.900;8.146;2023-08-08T13:25:29;1.90;;;1.00;;
36593;SDS011;22603;47.900;8.146;2023-08-08T13:28:20;2.65;;;1.20;;
36593;SDS011;22603;47.900;8.146;2023-08-08T13:31:07;4.75;;;1.25;;
36593;SDS011;22603;47.900;8.146;2023-08-08T13:33:54;2.53;;;1.27;;
36593;SDS011;22603;47.900;8.146;2023-08-08T13:36:41;3.58;;;1.23;;
36593;SDS011;22603;47.900;8.146;2023-08-08T13:39:28;1.98;;;1.20;;
36593;SDS011;22603;47.900;8.146;2023-08-08T13:42:15;3.42;;;1.17;;
36593;SDS011;22603;47.900;8.146;2023-08-08T13:45:04;2.55;;;1.20;;
36593;SDS011;22603;47.900;8.146;2023-08-08T13:47:51;3.92;;;1.02;;
36593;SDS011;22603;47.900;8.146;2023-08-08T13:50:38;3.35;;;1.30;;
36593;SDS011;22603;47.900;8.146;2023-08-08T13:53:25;2.78;;;1.30;;
36593;SDS011;22603;47.900;8.146;2023-08-08T13:56:12;4.93;;;1.10;;
36593;SDS011;22603;47.900;8.146;2023-08-08T13:58:58;3.83;;;1.10;;
36593;SDS011;22603;47.900;8.146;2023-08-08T14:01:46;1.70;;;1.17;;
36593;SDS011;22603;47.900;8.146;2023-08-08T14:04:33;1.52;;;1.00;;
36593;SDS011;22603;47.900;8.146;2023-08-08T14:07:20;1.67;;;1.00;;
36593;SDS011;22603;47.900;8.146;2023-08-08T14:10:07;3.08;;;1.10;;
36593;SDS011;22603;47.900;8.146;2023-08-08T14:12:55;2.45;;;1.08;;
36593;SDS011;22603;47.900;8.146;2023-08-08T14:15:41;3.25;;;1.30;;
36593;SDS011;22603;47.900;8.146;2023-08-08T14:18:29;2.25;;;1.20;;
36593;SDS011;22603;47.900;8.146;2023-08-08T14:21:16;4.78;;;1.27;;
36593;SDS011;22603;47.900;8.146;2023-08-08T14:24:03;3.33;;;1.48;;
36593;SDS011;22603;47.900;8.146;2023-08-08T14:26:50;3.30;;;1.25;;
36593;SDS011;22603;47.900;8.146;2023-08-08T14:29:37;3.90;;;1.30;;
36593;SDS011;22603;47.900;8.146;2023-08-08T14:32:24;3.17;;;1.38;;
36593;SDS011;22603;47.900;8.146;2023-08-08T14:35:13;3.60;;;1.20;;
36593;SDS011;22603;47.900;8.146;2023-08-08T14:38:00;3.65;;;1.30;;
36593;SDS011;22603;47.900;8.146;2023-08-08T14:40:46;1.83;;;1.08;;
36593;SDS011;22603;47.900;8.146;2023-08-08T14:43:33;4.07;;;1.10;;
36593;SDS011;22603;47.900;8.146;2023-08-08T14:46:20;5.10;;;1.30;;
36593;SDS011;22603;47.900;8.146;2023-08-08T14:49:06;7.43;;;1.45;;
36593;SDS011;22603;47.900;8.146;2023-08-08T14:51:55;1.75;;;1.00;;
36593;SDS011;22603;47.900;8.146;2023-08-08T14:54:42;2.60;;;1.10;;
36593;SDS011;22603;47.900;8.146;2023-08-08T14:57:29;3.38;;;1.40;;
36593;SDS011;22603;47.900;8.146;2023-08-08T15:00:17;2.10;;;1.05;;
36593;SDS011;22603;47.900;8.146;2023-08-08T15:03:04;2.42;;;1.15;;
36593;SDS011;22603;47.900;8.146;2023-08-08T15:05:51;4.30;;;1.23;;
36593;SDS011;22603;47.900;8.146;2023-08-08T15:08:42;3.58;;;1.35;;
36593;SDS011;22603;47.900;8.146;2023-08-08T15:11:29;4.07;;;1.17;;
36593;SDS011;22603;47.900;8.146;2023-08-08T15:14:16;3.83;;;1.23;;
36593;SDS011;22603;47.900;8.146;2023-08-08T15:17:02;4.25;;;1.30;;
36593;SDS011;22603;47.900;8.146;2023-08-08T15:19:49;3.63;;;1.52;;
36593;SDS011;22603;47.900;8.146;2023-08-08T15:22:36;6.15;;;1.40;;
36593;SDS011;22603;47.900;8.146;2023-08-08T15:25:24;3.72;;;1.13;;
36593;SDS011;22603;47.900;8.146;2023-08-08T15:28:11;2.35;;;1.25;;
36593;SDS011;22603;47.900;8.146;2023-08-08T15:30:58;2.63;;;1.05;;
36593;SDS011;22603;47.900;8.146;2023-08-08T15:33:44;3.33;;;1.10;;
36593;SDS011;22603;47.900;8.146;2023-08-08T15:36:31;2.67;;;1.25;;
36593;SDS011;22603;47.900;8.146;2023-08-08T15:39:21;2.97;;;1.15;;
36593;SDS011;22603;47.900;8.146;2023-08-08T15:42:09;1.90;;;1.00;;
36593;SDS011;22603;47.900;8.146;2023-08-08T15:44:56;7.07;;;1.40;;
36593;SDS011;22603;47.900;8.146;2023-08-08T15:47:43;5.20;;;1.40;;
36593;SDS011;22603;47.900;8.146;2023-08-08T15:50:29;4.40;;;1.23;;
36593;SDS011;22603;47.900;8.146;2023-08-08T15:53:16;3.20;;;1.20;;
36593;SDS011;22603;47.900;8.146;2023-08-08T15:56:03;3.20;;;1.20;;
36593;SDS011;22603;47.900;8.146;2023-08-08T15:58:53;2.70;;;1.23;;
36593;SDS011;22603;47.900;8.146;2023-08-08T16:01:39;4.60;;;1.30;;
36593;SDS011;22603;47.900;8.146;2023-08-08T16:04:26;3.10;;;1.38;;
36593;SDS011;22603;47.900;8.146;2023-08-08T16:07:15;2.88;;;1.13;;
36593;SDS011;22603;47.900;8.146;2023-08-08T16:10:02;4.55;;;1.35;;
36593;SDS011;22603;47.900;8.146;2023-08-08T16:12:50;3.00;;;1.33;;
36593;SDS011;22603;47.900;8.146;2023-08-08T16:15:38;4.15;;;1.40;;
36593;SDS011;22603;47.900;8.146;2023-08-08T16:18:26;2.83;;;1.23;;
36593;SDS011;22603;47.900;8.146;2023-08-08T16:21:14;1.95;;;1.05;;
36593;SDS011;22603;47.900;8.146;2023-08-08T16:24:00;4.15;;;1.48;;
36593;SDS011;22603;47.900;8.146;2023-08-08T16:26:48;3.65;;;1.40;;
36593;SDS011;22603;47.900;8.146;2023-08-08T16:29:35;3.08;;;1.42;;
36593;SDS011;22603;47.900;8.146;2023-08-08T16:32:23;3.83;;;1.30;;
36593;SDS011;22603;47.900;8.146;2023-08-08T16:35:10;3.17;;;1.20;;
36593;SDS011;22603;47.900;8.146;2023-08-08T16:37:56;2.20;;;1.10;;
36593;SDS011;22603;47.900;8.146;2023-08-08T16:40:43;3.85;;;1.50;;
36593;SDS011;22603;47.900;8.146;2023-08-08T16:43:30;2.33;;;1.20;;
36593;SDS011;22603;47.900;8.146;2023-08-08T16:46:21;2.75;;;1.30;;
36593;SDS011;22603;47.900;8.146;2023-08-08T16:49:09;3.35;;;1.30;;
36593;SDS011;22603;47.900;8.146;2023-08-08T16:51:56;4.25;;;2.08;;